GLG1662 SEQM-SEGU
Flight info
| Callsign | GLG1662 |
|---|---|
| Flight time | 0h 52m |
| Altitude | 24000 |
| Route | TEMOX3A TEMOX |
| Aircraft | A320/M-SDE3FGHIRWY/LB1 |
Departure
| Time | 2026-04-16 22:17 |
|---|---|
| Airport | Mariscal Sucre International Airport (SEQM) |
Arrival
| Time | 2026-04-16 23:10 |
|---|---|
| Airport | José Joaquín de Olmedo International Airport (SEGU) |
| Time | Latitude | Longitude | Altitude | Speed | Heading |
|---|---|---|---|---|---|
| 2026-04-16 21:50 | -0.12542 | -78.35924 | 7842 ft | 0 kts | 266° |
| 2026-04-16 22:05 | -0.12542 | -78.35923 | 7842 ft | 2 kts | 266° |
| 2026-04-16 22:05 | -0.12541 | -78.35906 | 7826 ft | 3 kts | 266° |
| 2026-04-16 22:06 | -0.12540 | -78.35888 | 7851 ft | 3 kts | 266° |
| 2026-04-16 22:06 | -0.12538 | -78.35853 | 7842 ft | 2 kts | 235° |
| 2026-04-16 22:06 | -0.12527 | -78.35845 | 7837 ft | 0 kts | 181° |
| 2026-04-16 22:08 | -0.12528 | -78.35845 | 7837 ft | 1 kts | 181° |
| 2026-04-16 22:08 | -0.12577 | -78.35842 | 7842 ft | 13 kts | 175° |
| 2026-04-16 22:08 | -0.12659 | -78.35829 | 7841 ft | 11 kts | 168° |
| 2026-04-16 22:09 | -0.12693 | -78.35790 | 7840 ft | 5 kts | 102° |
| 2026-04-16 22:09 | -0.12695 | -78.35768 | 7841 ft | 2 kts | 92° |
| 2026-04-16 22:09 | -0.12695 | -78.35750 | 7846 ft | 4 kts | 88° |
| 2026-04-16 22:09 | -0.12692 | -78.35717 | 7843 ft | 5 kts | 86° |
| 2026-04-16 22:10 | -0.12692 | -78.35694 | 7850 ft | 1 kts | 90° |
| 2026-04-16 22:10 | -0.12692 | -78.35681 | 7852 ft | 3 kts | 91° |
| 2026-04-16 22:10 | -0.12692 | -78.35657 | 7855 ft | 4 kts | 87° |
| 2026-04-16 22:10 | -0.12702 | -78.35615 | 7860 ft | 10 kts | 126° |
| 2026-04-16 22:11 | -0.12797 | -78.35599 | 7866 ft | 19 kts | 180° |
| 2026-04-16 22:11 | -0.12951 | -78.35591 | 7871 ft | 22 kts | 175° |
| 2026-04-16 22:11 | -0.13088 | -78.35585 | 7877 ft | 18 kts | 179° |
| 2026-04-16 22:11 | -0.13193 | -78.35582 | 7882 ft | 13 kts | 177° |
| 2026-04-16 22:12 | -0.13264 | -78.35579 | 7884 ft | 8 kts | 177° |
| 2026-04-16 22:12 | -0.13307 | -78.35577 | 7885 ft | 5 kts | 176° |
| 2026-04-16 22:12 | -0.13364 | -78.35576 | 7885 ft | 9 kts | 179° |
| 2026-04-16 22:12 | -0.13413 | -78.35576 | 7886 ft | 5 kts | 179° |
| 2026-04-16 22:13 | -0.13438 | -78.35575 | 7963 ft | 2 kts | 176° |
| 2026-04-16 22:13 | -0.13441 | -78.35575 | 7963 ft | 0 kts | 176° |
| 2026-04-16 22:13 | -0.13475 | -78.35571 | 7964 ft | 12 kts | 172° |
| 2026-04-16 22:13 | -0.13587 | -78.35562 | 7968 ft | 16 kts | 176° |
| 2026-04-16 22:14 | -0.13687 | -78.35561 | 7971 ft | 13 kts | 177° |
| 2026-04-16 22:14 | -0.13772 | -78.35556 | 7973 ft | 11 kts | 181° |
| 2026-04-16 22:14 | -0.13841 | -78.35555 | 7974 ft | 9 kts | 178° |
| 2026-04-16 22:14 | -0.13890 | -78.35553 | 7975 ft | 5 kts | 177° |
| 2026-04-16 22:15 | -0.13930 | -78.35552 | 7975 ft | 9 kts | 178° |
| 2026-04-16 22:15 | -0.14013 | -78.35547 | 7981 ft | 15 kts | 176° |
| 2026-04-16 22:15 | -0.14130 | -78.35542 | 7991 ft | 18 kts | 180° |
| 2026-04-16 22:15 | -0.14234 | -78.35511 | 7990 ft | 15 kts | 137° |
| 2026-04-16 22:16 | -0.14261 | -78.35426 | 7988 ft | 14 kts | 86° |
| 2026-04-16 22:16 | -0.14192 | -78.35370 | 7992 ft | 15 kts | 360° |
| 2026-04-16 22:16 | -0.14079 | -78.35374 | 7979 ft | 19 kts | 358° |
| 2026-04-16 22:16 | -0.13795 | -78.35386 | 7970 ft | 74 kts | 357° |
| 2026-04-16 22:17 | -0.13063 | -78.35417 | 7953 ft | 134 kts | 358° |
| 2026-04-16 22:17 | -0.11951 | -78.35463 | 7901 ft | 183 kts | 358° |
| 2026-04-16 22:17 | -0.10630 | -78.35516 | 8440 ft | 187 kts | 357° |
| 2026-04-16 22:17 | -0.09326 | -78.35602 | 9194 ft | 188 kts | 349° |
| 2026-04-16 22:18 | -0.08065 | -78.35926 | 9880 ft | 187 kts | 341° |
| 2026-04-16 22:18 | -0.06834 | -78.36344 | 10385 ft | 187 kts | 340° |
| 2026-04-16 22:18 | -0.05606 | -78.36777 | 10848 ft | 187 kts | 339° |
| 2026-04-16 22:18 | -0.04365 | -78.37212 | 11261 ft | 194 kts | 340° |
| 2026-04-16 22:19 | -0.03019 | -78.37679 | 11464 ft | 216 kts | 340° |
| 2026-04-16 22:19 | -0.01532 | -78.38190 | 11609 ft | 236 kts | 340° |
| 2026-04-16 22:19 | 0.00082 | -78.38739 | 11723 ft | 252 kts | 340° |
| 2026-04-16 22:19 | 0.01809 | -78.39321 | 11871 ft | 274 kts | 340° |
| 2026-04-16 22:20 | 0.03693 | -78.39953 | 12062 ft | 296 kts | 340° |
| 2026-04-16 22:20 | 0.05662 | -78.40610 | 12760 ft | 294 kts | 341° |
| 2026-04-16 22:20 | 0.07584 | -78.41249 | 13714 ft | 290 kts | 341° |
| 2026-04-16 22:20 | 0.09449 | -78.41998 | 14372 ft | 290 kts | 326° |
| 2026-04-16 22:21 | 0.10874 | -78.43471 | 14638 ft | 306 kts | 301° |
| 2026-04-16 22:21 | 0.11840 | -78.45404 | 15056 ft | 315 kts | 292° |
| 2026-04-16 22:21 | 0.12605 | -78.47477 | 15580 ft | 320 kts | 288° |
| 2026-04-16 22:21 | 0.13298 | -78.49606 | 16154 ft | 324 kts | 287° |
| 2026-04-16 22:22 | 0.13996 | -78.51756 | 16737 ft | 327 kts | 288° |
| 2026-04-16 22:22 | 0.14712 | -78.53921 | 17311 ft | 330 kts | 285° |
| 2026-04-16 22:22 | 0.14997 | -78.56202 | 17841 ft | 334 kts | 267° |
| 2026-04-16 22:22 | 0.14540 | -78.58483 | 18203 ft | 344 kts | 248° |
| 2026-04-16 22:23 | 0.13235 | -78.60534 | 18335 ft | 360 kts | 225° |
| 2026-04-16 22:23 | 0.11243 | -78.62126 | 18468 ft | 375 kts | 216° |
| 2026-04-16 22:23 | 0.09103 | -78.63669 | 18769 ft | 382 kts | 216° |
| 2026-04-16 22:23 | 0.06931 | -78.65225 | 19184 ft | 386 kts | 216° |
| 2026-04-16 22:24 | 0.04743 | -78.66795 | 19642 ft | 388 kts | 216° |
| 2026-04-16 22:24 | 0.02547 | -78.68382 | 20094 ft | 391 kts | 216° |
| 2026-04-16 22:24 | 0.00336 | -78.69986 | 20489 ft | 394 kts | 217° |
| 2026-04-16 22:24 | -0.01883 | -78.71601 | 20993 ft | 397 kts | 217° |
| 2026-04-16 22:25 | -0.04121 | -78.73229 | 21430 ft | 399 kts | 217° |
| 2026-04-16 22:25 | -0.06372 | -78.74866 | 21856 ft | 402 kts | 217° |
| 2026-04-16 22:25 | -0.08642 | -78.76513 | 22098 ft | 404 kts | 217° |
| 2026-04-16 22:25 | -0.10886 | -78.78144 | 22147 ft | 392 kts | 216° |
| 2026-04-16 22:26 | -0.13069 | -78.79732 | 22150 ft | 386 kts | 217° |
| 2026-04-16 22:26 | -0.15233 | -78.81308 | 22149 ft | 384 kts | 217° |
| 2026-04-16 22:26 | -0.17392 | -78.82877 | 22152 ft | 383 kts | 216° |
| 2026-04-16 22:26 | -0.19521 | -78.84420 | 22100 ft | 383 kts | 216° |
| 2026-04-16 22:27 | -0.21679 | -78.85983 | 22103 ft | 384 kts | 216° |
| 2026-04-16 22:27 | -0.23840 | -78.87549 | 22104 ft | 383 kts | 217° |
| 2026-04-16 22:27 | -0.25997 | -78.89115 | 22103 ft | 383 kts | 217° |
| 2026-04-16 22:27 | -0.28153 | -78.90685 | 22104 ft | 384 kts | 217° |
| 2026-04-16 22:28 | -0.30310 | -78.92254 | 22128 ft | 383 kts | 217° |
| 2026-04-16 22:28 | -0.32467 | -78.93819 | 22128 ft | 383 kts | 216° |
| 2026-04-16 22:28 | -0.34625 | -78.95383 | 22126 ft | 383 kts | 217° |
| 2026-04-16 22:28 | -0.36784 | -78.96948 | 22128 ft | 384 kts | 216° |
| 2026-04-16 22:29 | -0.38943 | -78.98516 | 22077 ft | 384 kts | 217° |
| 2026-04-16 22:29 | -0.41095 | -79.00079 | 22073 ft | 383 kts | 217° |
| 2026-04-16 22:29 | -0.43250 | -79.01644 | 22071 ft | 383 kts | 217° |
| 2026-04-16 22:29 | -0.45402 | -79.03210 | 22084 ft | 383 kts | 217° |
| 2026-04-16 22:30 | -0.46828 | -79.04248 | 22082 ft | 383 kts | 217° |
| 2026-04-16 22:30 | -0.48978 | -79.05812 | 22083 ft | 383 kts | 217° |
| 2026-04-16 22:30 | -0.51133 | -79.07375 | 22080 ft | 383 kts | 217° |
| 2026-04-16 22:30 | -0.53292 | -79.08939 | 22079 ft | 383 kts | 217° |
| 2026-04-16 22:31 | -0.55451 | -79.10507 | 22082 ft | 384 kts | 217° |
| 2026-04-16 22:31 | -0.57616 | -79.12075 | 22087 ft | 386 kts | 215° |
| 2026-04-16 22:31 | -0.59943 | -79.13413 | 22016 ft | 386 kts | 206° |
| 2026-04-16 22:31 | -0.62370 | -79.14536 | 22029 ft | 384 kts | 205° |
| 2026-04-16 22:32 | -0.64794 | -79.15658 | 22025 ft | 384 kts | 205° |
| 2026-04-16 22:32 | -0.67217 | -79.16783 | 22026 ft | 384 kts | 206° |
| 2026-04-16 22:32 | -0.69639 | -79.17911 | 22028 ft | 384 kts | 206° |
| 2026-04-16 22:32 | -0.72064 | -79.19040 | 22030 ft | 385 kts | 205° |
| 2026-04-16 22:33 | -0.74488 | -79.20168 | 22030 ft | 384 kts | 205° |
| 2026-04-16 22:33 | -0.76911 | -79.21295 | 22025 ft | 384 kts | 205° |
| 2026-04-16 22:33 | -0.79332 | -79.22420 | 22027 ft | 384 kts | 205° |
| 2026-04-16 22:33 | -0.81758 | -79.23547 | 22028 ft | 385 kts | 205° |
| 2026-04-16 22:34 | -0.84186 | -79.24673 | 22030 ft | 385 kts | 205° |
| 2026-04-16 22:34 | -0.86615 | -79.25798 | 22027 ft | 384 kts | 205° |
| 2026-04-16 22:34 | -0.89041 | -79.26925 | 22030 ft | 384 kts | 205° |
| 2026-04-16 22:34 | -0.91467 | -79.28055 | 21968 ft | 385 kts | 205° |
| 2026-04-16 22:35 | -0.93888 | -79.29183 | 21965 ft | 385 kts | 205° |
| 2026-04-16 22:35 | -0.96313 | -79.30313 | 21964 ft | 385 kts | 205° |
| 2026-04-16 22:35 | -0.98738 | -79.31443 | 21966 ft | 385 kts | 205° |
| 2026-04-16 22:35 | -1.01164 | -79.32570 | 21967 ft | 385 kts | 205° |
| 2026-04-16 22:36 | -1.03592 | -79.33695 | 21965 ft | 385 kts | 205° |
| 2026-04-16 22:36 | -1.06019 | -79.34820 | 21967 ft | 384 kts | 205° |
| 2026-04-16 22:36 | -1.08444 | -79.35949 | 21967 ft | 384 kts | 205° |
| 2026-04-16 22:36 | -1.10867 | -79.37081 | 21967 ft | 384 kts | 205° |
| 2026-04-16 22:37 | -1.13289 | -79.38208 | 21963 ft | 384 kts | 205° |
| 2026-04-16 22:37 | -1.15733 | -79.39343 | 21973 ft | 394 kts | 205° |
| 2026-04-16 22:37 | -1.18234 | -79.40504 | 21945 ft | 395 kts | 205° |
| 2026-04-16 22:37 | -1.20693 | -79.41648 | 21287 ft | 386 kts | 205° |
| 2026-04-16 22:38 | -1.23134 | -79.42787 | 20708 ft | 386 kts | 205° |
| 2026-04-16 22:38 | -1.25527 | -79.43905 | 20252 ft | 384 kts | 205° |
| 2026-04-16 22:38 | -1.27937 | -79.45028 | 19827 ft | 381 kts | 205° |
| 2026-04-16 22:38 | -1.30332 | -79.46139 | 19405 ft | 378 kts | 205° |
| 2026-04-16 22:39 | -1.32712 | -79.47244 | 18980 ft | 376 kts | 204° |
| 2026-04-16 22:39 | -1.35079 | -79.48341 | 18580 ft | 374 kts | 204° |
| 2026-04-16 22:39 | -1.37456 | -79.49443 | 18179 ft | 371 kts | 204° |
| 2026-04-16 22:39 | -1.39758 | -79.50512 | 17733 ft | 369 kts | 204° |
| 2026-04-16 22:40 | -1.42073 | -79.51589 | 17306 ft | 365 kts | 204° |
| 2026-04-16 22:40 | -1.44370 | -79.52656 | 16897 ft | 362 kts | 204° |
| 2026-04-16 22:40 | -1.46644 | -79.53714 | 16496 ft | 359 kts | 205° |
| 2026-04-16 22:40 | -1.48897 | -79.54765 | 16104 ft | 356 kts | 205° |
| 2026-04-16 22:41 | -1.51131 | -79.55806 | 15705 ft | 353 kts | 205° |
| 2026-04-16 22:41 | -1.53343 | -79.56834 | 15321 ft | 350 kts | 205° |
| 2026-04-16 22:41 | -1.55542 | -79.57856 | 14906 ft | 347 kts | 205° |
| 2026-04-16 22:41 | -1.57728 | -79.58871 | 14532 ft | 345 kts | 205° |
| 2026-04-16 22:42 | -1.59957 | -79.59624 | 14391 ft | 334 kts | 193° |
| 2026-04-16 22:42 | -1.62200 | -79.60077 | 14271 ft | 324 kts | 191° |
| 2026-04-16 22:42 | -1.64389 | -79.60496 | 14069 ft | 318 kts | 191° |
| 2026-04-16 22:42 | -1.66551 | -79.60906 | 13784 ft | 315 kts | 191° |
| 2026-04-16 22:43 | -1.68698 | -79.61312 | 13458 ft | 313 kts | 191° |
| 2026-04-16 22:43 | -1.70827 | -79.61711 | 13123 ft | 311 kts | 191° |
| 2026-04-16 22:43 | -1.72950 | -79.62108 | 12771 ft | 309 kts | 191° |
| 2026-04-16 22:43 | -1.75045 | -79.62551 | 12449 ft | 306 kts | 199° |
| 2026-04-16 22:44 | -1.76835 | -79.63637 | 12151 ft | 301 kts | 224° |
| 2026-04-16 22:44 | -1.78343 | -79.65089 | 11728 ft | 302 kts | 217° |
| 2026-04-16 22:44 | -1.80087 | -79.66261 | 11360 ft | 302 kts | 213° |
| 2026-04-16 22:44 | -1.81767 | -79.67401 | 11204 ft | 287 kts | 215° |
| 2026-04-16 22:45 | -1.83349 | -79.68503 | 11084 ft | 268 kts | 215° |
| 2026-04-16 22:45 | -1.84835 | -79.69540 | 10873 ft | 255 kts | 215° |
| 2026-04-16 22:45 | -1.86262 | -79.70537 | 10654 ft | 243 kts | 215° |
| 2026-04-16 22:45 | -1.87614 | -79.71474 | 10482 ft | 231 kts | 212° |
| 2026-04-16 22:46 | -1.89038 | -79.72159 | 10187 ft | 225 kts | 208° |
| 2026-04-16 22:46 | -1.90287 | -79.73058 | 9938 ft | 216 kts | 220° |
| 2026-04-16 22:46 | -1.91419 | -79.73985 | 9655 ft | 207 kts | 220° |
| 2026-04-16 22:46 | -1.92521 | -79.74879 | 9113 ft | 203 kts | 220° |
| 2026-04-16 22:47 | -1.93681 | -79.75677 | 8516 ft | 203 kts | 210° |
| 2026-04-16 22:47 | -1.94891 | -79.76356 | 8024 ft | 195 kts | 211° |
| 2026-04-16 22:47 | -1.96048 | -79.77017 | 7527 ft | 189 kts | 211° |
| 2026-04-16 22:47 | -1.97180 | -79.77668 | 7007 ft | 187 kts | 211° |
| 2026-04-16 22:48 | -1.98304 | -79.78315 | 6505 ft | 185 kts | 211° |
| 2026-04-16 22:48 | -1.99416 | -79.78955 | 5999 ft | 184 kts | 211° |
| 2026-04-16 22:48 | -2.00523 | -79.79592 | 5478 ft | 182 kts | 211° |
| 2026-04-16 22:48 | -2.01619 | -79.80224 | 4964 ft | 182 kts | 211° |
| 2026-04-16 22:49 | -2.02711 | -79.80853 | 4416 ft | 181 kts | 211° |
| 2026-04-16 22:49 | -2.03830 | -79.81499 | 3686 ft | 189 kts | 211° |
| 2026-04-16 22:49 | -2.04948 | -79.82143 | 3284 ft | 177 kts | 210° |
| 2026-04-16 22:49 | -2.05996 | -79.82746 | 3160 ft | 173 kts | 210° |
| 2026-04-16 22:50 | -2.07049 | -79.83353 | 2661 ft | 175 kts | 209° |
| 2026-04-16 22:50 | -2.08103 | -79.83961 | 2139 ft | 174 kts | 209° |
| 2026-04-16 22:50 | -2.09107 | -79.84540 | 1840 ft | 163 kts | 208° |
| 2026-04-16 22:50 | -2.10091 | -79.85114 | 1277 ft | 165 kts | 208° |
| 2026-04-16 22:51 | -2.11079 | -79.85692 | 817 ft | 162 kts | 210° |
| 2026-04-16 22:51 | -2.12044 | -79.86245 | 542 ft | 158 kts | 206° |
| 2026-04-16 22:51 | -2.12971 | -79.86784 | 320 ft | 150 kts | 208° |
| 2026-04-16 22:51 | -2.13875 | -79.87288 | 203 ft | 149 kts | 209° |
| 2026-04-16 22:52 | -2.14765 | -79.87799 | 152 ft | 152 kts | 206° |
| 2026-04-16 22:52 | -2.15754 | -79.88365 | 754 ft | 169 kts | 205° |
| 2026-04-16 22:52 | -2.16788 | -79.88911 | 1683 ft | 167 kts | 206° |
| 2026-04-16 22:52 | -2.17841 | -79.89476 | 2156 ft | 181 kts | 209° |
| 2026-04-16 22:53 | -2.18999 | -79.90152 | 2380 ft | 204 kts | 210° |
| 2026-04-16 22:53 | -2.20271 | -79.90907 | 2914 ft | 216 kts | 210° |
| 2026-04-16 22:53 | -2.21579 | -79.91683 | 3636 ft | 222 kts | 211° |
| 2026-04-16 22:53 | -2.22922 | -79.92475 | 3917 ft | 226 kts | 211° |
| 2026-04-16 22:54 | -2.24270 | -79.93281 | 3989 ft | 226 kts | 216° |
| 2026-04-16 22:54 | -2.25203 | -79.94496 | 4000 ft | 223 kts | 255° |
| 2026-04-16 22:54 | -2.25100 | -79.95988 | 4001 ft | 224 kts | 295° |
| 2026-04-16 22:54 | -2.23998 | -79.97061 | 4004 ft | 229 kts | 337° |
| 2026-04-16 22:55 | -2.22425 | -79.97165 | 4006 ft | 233 kts | 14° |
| 2026-04-16 22:55 | -2.20896 | -79.96596 | 4007 ft | 236 kts | 25° |
| 2026-04-16 22:55 | -2.19411 | -79.95880 | 4005 ft | 238 kts | 25° |
| 2026-04-16 22:55 | -2.17912 | -79.95189 | 4005 ft | 237 kts | 23° |
| 2026-04-16 22:56 | -2.16392 | -79.94562 | 4001 ft | 237 kts | 20° |
| 2026-04-16 22:56 | -2.14846 | -79.93992 | 4004 ft | 237 kts | 17° |
| 2026-04-16 22:56 | -2.13282 | -79.93465 | 4004 ft | 237 kts | 17° |
| 2026-04-16 22:56 | -2.11714 | -79.92968 | 4005 ft | 236 kts | 16° |
| 2026-04-16 22:57 | -2.10143 | -79.92488 | 4000 ft | 236 kts | 15° |
| 2026-04-16 22:57 | -2.08565 | -79.92015 | 4001 ft | 237 kts | 15° |
| 2026-04-16 22:57 | -2.06986 | -79.91549 | 4001 ft | 237 kts | 15° |
| 2026-04-16 22:57 | -2.05412 | -79.91087 | 3999 ft | 236 kts | 15° |
| 2026-04-16 22:58 | -2.03831 | -79.90626 | 3999 ft | 237 kts | 15° |
| 2026-04-16 22:58 | -2.02251 | -79.90165 | 3996 ft | 236 kts | 15° |
| 2026-04-16 22:58 | -2.00675 | -79.89704 | 3996 ft | 235 kts | 15° |
| 2026-04-16 22:58 | -1.99104 | -79.89245 | 3998 ft | 235 kts | 15° |
| 2026-04-16 22:59 | -1.97514 | -79.88823 | 3995 ft | 236 kts | 5° |
| 2026-04-16 22:59 | -1.95906 | -79.88961 | 3998 ft | 232 kts | 339° |
| 2026-04-16 22:59 | -1.94540 | -79.89783 | 4004 ft | 230 kts | 313° |
| 2026-04-16 22:59 | -1.93667 | -79.91098 | 4005 ft | 228 kts | 293° |
| 2026-04-16 23:00 | -1.92953 | -79.92512 | 4005 ft | 228 kts | 297° |
| 2026-04-16 23:00 | -1.92175 | -79.93887 | 4007 ft | 228 kts | 298° |
| 2026-04-16 23:00 | -1.91381 | -79.95255 | 4007 ft | 227 kts | 298° |
| 2026-04-16 23:00 | -1.90883 | -79.96731 | 4007 ft | 225 kts | 270° |
| 2026-04-16 23:01 | -1.91222 | -79.98226 | 4007 ft | 223 kts | 239° |
| 2026-04-16 23:01 | -1.92313 | -79.99301 | 4006 ft | 224 kts | 207° |
| 2026-04-16 23:01 | -1.93787 | -79.99694 | 4002 ft | 225 kts | 180° |
| 2026-04-16 23:01 | -1.95326 | -79.99331 | 4003 ft | 228 kts | 152° |
| 2026-04-16 23:02 | -1.96480 | -79.98257 | 3997 ft | 232 kts | 122° |
| 2026-04-16 23:02 | -1.96957 | -79.96724 | 3997 ft | 235 kts | 91° |
| 2026-04-16 23:02 | -1.96736 | -79.95143 | 3993 ft | 224 kts | 79° |
| 2026-04-16 23:02 | -1.96438 | -79.93678 | 3991 ft | 215 kts | 79° |
| 2026-04-16 23:03 | -1.96140 | -79.92214 | 3997 ft | 214 kts | 78° |
| 2026-04-16 23:03 | -1.95842 | -79.90758 | 4002 ft | 213 kts | 78° |
| 2026-04-16 23:03 | -1.95575 | -79.89303 | 3998 ft | 213 kts | 86° |
| 2026-04-16 23:03 | -1.95685 | -79.87840 | 4001 ft | 212 kts | 105° |
| 2026-04-16 23:04 | -1.96248 | -79.86492 | 3813 ft | 208 kts | 123° |
| 2026-04-16 23:04 | -1.96966 | -79.85289 | 3738 ft | 194 kts | 123° |
| 2026-04-16 23:04 | -1.97621 | -79.84169 | 3685 ft | 180 kts | 122° |
| 2026-04-16 23:04 | -1.98233 | -79.83121 | 3635 ft | 169 kts | 122° |
| 2026-04-16 23:05 | -1.98812 | -79.82129 | 3596 ft | 164 kts | 124° |
| 2026-04-16 23:05 | -1.99393 | -79.81145 | 3504 ft | 164 kts | 127° |
| 2026-04-16 23:05 | -2.00225 | -79.80420 | 3339 ft | 157 kts | 159° |
| 2026-04-16 23:05 | -2.01273 | -79.80237 | 3142 ft | 153 kts | 188° |
| 2026-04-16 23:06 | -2.02256 | -79.80592 | 2943 ft | 151 kts | 210° |
| 2026-04-16 23:06 | -2.03168 | -79.81124 | 2732 ft | 152 kts | 209° |
| 2026-04-16 23:06 | -2.04091 | -79.81654 | 2514 ft | 153 kts | 209° |
| 2026-04-16 23:06 | -2.05017 | -79.82186 | 2293 ft | 154 kts | 208° |
| 2026-04-16 23:07 | -2.05950 | -79.82722 | 2070 ft | 155 kts | 208° |
| 2026-04-16 23:07 | -2.06881 | -79.83261 | 1846 ft | 152 kts | 209° |
| 2026-04-16 23:07 | -2.07779 | -79.83778 | 1661 ft | 145 kts | 209° |
| 2026-04-16 23:07 | -2.08659 | -79.84285 | 1455 ft | 146 kts | 209° |
| 2026-04-16 23:08 | -2.09536 | -79.84789 | 1257 ft | 146 kts | 208° |
| 2026-04-16 23:08 | -2.10408 | -79.85291 | 1072 ft | 145 kts | 207° |
| 2026-04-16 23:08 | -2.11283 | -79.85795 | 891 ft | 144 kts | 208° |
| 2026-04-16 23:08 | -2.12160 | -79.86298 | 712 ft | 146 kts | 206° |
| 2026-04-16 23:09 | -2.13048 | -79.86808 | 489 ft | 147 kts | 208° |
| 2026-04-16 23:09 | -2.13938 | -79.87324 | 284 ft | 149 kts | 209° |
| 2026-04-16 23:09 | -2.14826 | -79.87838 | 93 ft | 148 kts | 205° |
| 2026-04-16 23:09 | -2.15658 | -79.88322 | 23 ft | 128 kts | 207° |
| 2026-04-16 23:10 | -2.16294 | -79.88684 | 24 ft | 80 kts | 211° |
| 2026-04-16 23:10 | -2.16621 | -79.88870 | 24 ft | 37 kts | 209° |
| 2026-04-16 23:10 | -2.16695 | -79.88992 | 24 ft | 16 kts | 318° |
| 2026-04-16 23:10 | -2.16607 | -79.88972 | 23 ft | 13 kts | 30° |
| 2026-04-16 23:11 | -2.16536 | -79.88932 | 22 ft | 11 kts | 29° |
| 2026-04-16 23:11 | -2.16476 | -79.88899 | 23 ft | 9 kts | 29° |
| 2026-04-16 23:11 | -2.16424 | -79.88869 | 23 ft | 8 kts | 31° |
| 2026-04-16 23:11 | -2.16378 | -79.88842 | 23 ft | 7 kts | 31° |
| 2026-04-16 23:12 | -2.16338 | -79.88818 | 24 ft | 6 kts | 31° |
| 2026-04-16 23:12 | -2.16277 | -79.88782 | 23 ft | 19 kts | 31° |
| 2026-04-16 23:12 | -2.16111 | -79.88683 | 23 ft | 36 kts | 25° |
| 2026-04-16 23:12 | -2.15854 | -79.88541 | 23 ft | 45 kts | 30° |
| 2026-04-16 23:13 | -2.15583 | -79.88384 | 22 ft | 39 kts | 30° |
| 2026-04-16 23:13 | -2.15368 | -79.88260 | 22 ft | 30 kts | 33° |
| 2026-04-16 23:13 | -2.15255 | -79.88244 | 23 ft | 14 kts | 315° |
| 2026-04-16 23:13 | -2.15207 | -79.88323 | 22 ft | 12 kts | 299° |
| 2026-04-16 23:14 | -2.15164 | -79.88391 | 22 ft | 11 kts | 315° |
| 2026-04-16 23:14 | -2.15103 | -79.88380 | 24 ft | 9 kts | 25° |
| 2026-04-16 23:14 | -2.15050 | -79.88352 | 22 ft | 8 kts | 30° |
| 2026-04-16 23:14 | -2.15001 | -79.88323 | 22 ft | 8 kts | 31° |
| 2026-04-16 23:15 | -2.14927 | -79.88306 | 24 ft | 4 kts | 304° |
| 2026-04-16 23:15 | -2.14913 | -79.88329 | 22 ft | 4 kts | 302° |
| 2026-04-16 23:15 | -2.14906 | -79.88339 | 22 ft | 0 kts | 303° |